sensor_id;sensor_type;location;lat;lon;timestamp;temperature;humidity
3330;DHT22;1677;49.576;10.990;2023-03-01T00:01:25;0.10;99.90
3330;DHT22;1677;49.576;10.990;2023-03-01T00:03:52;0.10;99.90
3330;DHT22;1677;49.576;10.990;2023-03-01T00:06:19;0.10;99.90
3330;DHT22;1677;49.576;10.990;2023-03-01T00:08:44;0.10;99.90
3330;DHT22;1677;49.576;10.990;2023-03-01T00:11:15;0.10;99.90
3330;DHT22;1677;49.576;10.990;2023-03-01T00:13:43;0.00;99.90
3330;DHT22;1677;49.576;10.990;2023-03-01T00:16:12;-0.10;99.90
3330;DHT22;1677;49.576;10.990;2023-03-01T00:18:38;-0.10;99.90
3330;DHT22;1677;49.576;10.990;2023-03-01T00:21:04;0.00;99.90
3330;DHT22;1677;49.576;10.990;2023-03-01T00:23:31;0.10;99.90
3330;DHT22;1677;49.576;10.990;2023-03-01T00:25:59;0.10;99.90
3330;DHT22;1677;49.576;10.990;2023-03-01T00:28:24;0.00;99.90
3330;DHT22;1677;49.576;10.990;2023-03-01T00:30:50;0.00;99.90
3330;DHT22;1677;49.576;10.990;2023-03-01T00:33:16;0.00;99.90
3330;DHT22;1677;49.576;10.990;2023-03-01T00:35:41;0.20;99.90
3330;DHT22;1677;49.576;10.990;2023-03-01T00:38:07;0.10;99.90
3330;DHT22;1677;49.576;10.990;2023-03-01T00:40:34;0.10;99.90
3330;DHT22;1677;49.576;10.990;2023-03-01T00:43:01;0.10;99.90
3330;DHT22;1677;49.576;10.990;2023-03-01T00:45:27;-0.10;99.90
3330;DHT22;1677;49.576;10.990;2023-03-01T00:47:53;-0.20;99.90
3330;DHT22;1677;49.576;10.990;2023-03-01T00:50:19;-0.20;99.90
3330;DHT22;1677;49.576;10.990;2023-03-01T00:52:45;0.00;99.90
3330;DHT22;1677;49.576;10.990;2023-03-01T00:55:11;0.00;99.90
3330;DHT22;1677;49.576;10.990;2023-03-01T00:57:37;-0.20;99.90
3330;DHT22;1677;49.576;10.990;2023-03-01T01:00:05;-0.40;99.90
3330;DHT22;1677;49.576;10.990;2023-03-01T01:02:34;-0.20;99.90
3330;DHT22;1677;49.576;10.990;2023-03-01T01:05:00;-0.10;99.90
3330;DHT22;1677;49.576;10.990;2023-03-01T01:07:26;0.00;99.90
3330;DHT22;1677;49.576;10.990;2023-03-01T01:09:51;0.30;99.90
3330;DHT22;1677;49.576;10.990;2023-03-01T01:12:17;0.40;99.90
3330;DHT22;1677;49.576;10.990;2023-03-01T01:14:42;0.40;99.90
3330;DHT22;1677;49.576;10.990;2023-03-01T01:17:08;0.40;99.90
3330;DHT22;1677;49.576;10.990;2023-03-01T01:19:34;0.40;99.90
3330;DHT22;1677;49.576;10.990;2023-03-01T01:21:59;0.20;99.90
3330;DHT22;1677;49.576;10.990;2023-03-01T01:24:25;0.10;99.90
3330;DHT22;1677;49.576;10.990;2023-03-01T01:26:51;0.00;99.90
3330;DHT22;1677;49.576;10.990;2023-03-01T01:29:17;0.00;99.90
3330;DHT22;1677;49.576;10.990;2023-03-01T01:31:43;-0.20;99.90
3330;DHT22;1677;49.576;10.990;2023-03-01T01:34:17;-0.30;99.90
3330;DHT22;1677;49.576;10.990;2023-03-01T01:36:43;-0.40;99.90
3330;DHT22;1677;49.576;10.990;2023-03-01T01:39:09;-0.50;99.90
3330;DHT22;1677;49.576;10.990;2023-03-01T01:41:39;-0.90;99.90
3330;DHT22;1677;49.576;10.990;2023-03-01T01:44:33;-0.90;99.90
3330;DHT22;1677;49.576;10.990;2023-03-01T01:47:02;-0.90;99.90
3330;DHT22;1677;49.576;10.990;2023-03-01T01:49:37;-0.90;99.90
3330;DHT22;1677;49.576;10.990;2023-03-01T01:52:45;-0.80;99.90
3330;DHT22;1677;49.576;10.990;2023-03-01T01:55:08;-0.80;99.90
3330;DHT22;1677;49.576;10.990;2023-03-01T01:57:38;-0.80;99.90
3330;DHT22;1677;49.576;10.990;2023-03-01T02:00:09;-0.70;99.90
3330;DHT22;1677;49.576;10.990;2023-03-01T02:02:36;-0.90;99.90
3330;DHT22;1677;49.576;10.990;2023-03-01T02:05:11;-1.20;99.90
3330;DHT22;1677;49.576;10.990;2023-03-01T02:07:39;-1.40;99.90
3330;DHT22;1677;49.576;10.990;2023-03-01T02:10:05;-1.20;99.90
3330;DHT22;1677;49.576;10.990;2023-03-01T02:12:31;-0.90;99.90
3330;DHT22;1677;49.576;10.990;2023-03-01T02:14:57;-0.30;99.90
3330;DHT22;1677;49.576;10.990;2023-03-01T02:17:23;-0.20;99.90
3330;DHT22;1677;49.576;10.990;2023-03-01T02:22:35;0.00;99.90
3330;DHT22;1677;49.576;10.990;2023-03-01T02:25:12;-0.10;99.90
3330;DHT22;1677;49.576;10.990;2023-03-01T02:30:19;-0.10;99.90
3330;DHT22;1677;49.576;10.990;2023-03-01T02:32:46;-0.20;99.90
3330;DHT22;1677;49.576;10.990;2023-03-01T02:35:15;-0.20;99.90
3330;DHT22;1677;49.576;10.990;2023-03-01T02:37:42;-0.20;99.90
3330;DHT22;1677;49.576;10.990;2023-03-01T02:40:11;-0.60;99.90
3330;DHT22;1677;49.576;10.990;2023-03-01T02:42:43;-0.60;99.90
3330;DHT22;1677;49.576;10.990;2023-03-01T02:45:11;-0.30;99.90
3330;DHT22;1677;49.576;10.990;2023-03-01T02:47:37;-0.30;99.90
3330;DHT22;1677;49.576;10.990;2023-03-01T02:53:04;-0.30;99.90
3330;DHT22;1677;49.576;10.990;2023-03-01T02:55:33;-0.40;99.90
3330;DHT22;1677;49.576;10.990;2023-03-01T02:58:01;-0.20;99.90
3330;DHT22;1677;49.576;10.990;2023-03-01T03:00:33;-0.20;99.90
3330;DHT22;1677;49.576;10.990;2023-03-01T03:02:59;-0.30;99.90
3330;DHT22;1677;49.576;10.990;2023-03-01T03:05:32;-0.40;99.90
3330;DHT22;1677;49.576;10.990;2023-03-01T03:08:00;-0.20;99.90
3330;DHT22;1677;49.576;10.990;2023-03-01T03:10:29;-0.20;99.90
3330;DHT22;1677;49.576;10.990;2023-03-01T03:12:58;-0.50;99.90
3330;DHT22;1677;49.576;10.990;2023-03-01T03:15:24;-0.40;99.90
3330;DHT22;1677;49.576;10.990;2023-03-01T03:17:52;-0.50;99.90
3330;DHT22;1677;49.576;10.990;2023-03-01T03:20:20;-0.50;99.90
3330;DHT22;1677;49.576;10.990;2023-03-01T03:22:47;-0.60;99.90
3330;DHT22;1677;49.576;10.990;2023-03-01T03:25:14;-0.60;99.90
3330;DHT22;1677;49.576;10.990;2023-03-01T03:27:41;-0.60;99.90
3330;DHT22;1677;49.576;10.990;2023-03-01T03:30:11;-0.50;99.90
3330;DHT22;1677;49.576;10.990;2023-03-01T03:32:39;-0.80;99.90
3330;DHT22;1677;49.576;10.990;2023-03-01T03:35:06;-0.90;99.90
3330;DHT22;1677;49.576;10.990;2023-03-01T03:37:43;-0.80;99.90
3330;DHT22;1677;49.576;10.990;2023-03-01T03:40:39;-0.60;99.90
3330;DHT22;1677;49.576;10.990;2023-03-01T03:43:07;-0.60;99.90
3330;DHT22;1677;49.576;10.990;2023-03-01T03:45:33;-0.70;99.90
3330;DHT22;1677;49.576;10.990;2023-03-01T03:47:59;-0.40;99.90
3330;DHT22;1677;49.576;10.990;2023-03-01T03:50:26;-0.30;99.90
3330;DHT22;1677;49.576;10.990;2023-03-01T03:52:51;-0.20;99.90
3330;DHT22;1677;49.576;10.990;2023-03-01T03:55:18;-0.60;99.90
3330;DHT22;1677;49.576;10.990;2023-03-01T03:57:46;-0.90;99.90
3330;DHT22;1677;49.576;10.990;2023-03-01T04:00:18;-0.80;99.90
3330;DHT22;1677;49.576;10.990;2023-03-01T04:02:45;-0.90;99.90
3330;DHT22;1677;49.576;10.990;2023-03-01T04:05:12;-0.60;99.90
3330;DHT22;1677;49.576;10.990;2023-03-01T04:07:40;-0.30;99.90
3330;DHT22;1677;49.576;10.990;2023-03-01T04:10:08;-0.20;99.90
3330;DHT22;1677;49.576;10.990;2023-03-01T04:12:34;-0.30;99.90
3330;DHT22;1677;49.576;10.990;2023-03-01T04:15:01;-0.50;99.90
3330;DHT22;1677;49.576;10.990;2023-03-01T04:17:27;-0.60;99.90
3330;DHT22;1677;49.576;10.990;2023-03-01T04:19:52;-1.00;99.90
3330;DHT22;1677;49.576;10.990;2023-03-01T04:22:18;-1.20;99.90
3330;DHT22;1677;49.576;10.990;2023-03-01T04:24:45;-1.30;99.90
3330;DHT22;1677;49.576;10.990;2023-03-01T04:27:11;-1.20;99.90
3330;DHT22;1677;49.576;10.990;2023-03-01T04:29:37;-1.00;99.90
3330;DHT22;1677;49.576;10.990;2023-03-01T04:32:02;-1.10;99.90
3330;DHT22;1677;49.576;10.990;2023-03-01T04:34:29;-0.80;99.90
3330;DHT22;1677;49.576;10.990;2023-03-01T04:36:54;-0.60;99.90
3330;DHT22;1677;49.576;10.990;2023-03-01T04:39:20;-0.40;99.90
3330;DHT22;1677;49.576;10.990;2023-03-01T04:41:46;-0.30;99.90
3330;DHT22;1677;49.576;10.990;2023-03-01T04:44:12;-0.20;99.90
3330;DHT22;1677;49.576;10.990;2023-03-01T04:46:38;-0.10;99.90
3330;DHT22;1677;49.576;10.990;2023-03-01T04:49:04;-0.20;99.90
3330;DHT22;1677;49.576;10.990;2023-03-01T04:51:30;-0.30;99.90
3330;DHT22;1677;49.576;10.990;2023-03-01T04:53:57;-0.60;99.90
3330;DHT22;1677;49.576;10.990;2023-03-01T04:56:23;-0.50;99.90
3330;DHT22;1677;49.576;10.990;2023-03-01T04:58:49;-0.60;99.90
3330;DHT22;1677;49.576;10.990;2023-03-01T05:01:17;-0.70;99.90
3330;DHT22;1677;49.576;10.990;2023-03-01T05:03:48;-0.70;99.90
3330;DHT22;1677;49.576;10.990;2023-03-01T05:06:15;-0.70;99.90
3330;DHT22;1677;49.576;10.990;2023-03-01T05:08:42;-0.90;99.90
3330;DHT22;1677;49.576;10.990;2023-03-01T05:11:08;-0.80;99.90
3330;DHT22;1677;49.576;10.990;2023-03-01T05:13:35;-0.90;99.90
3330;DHT22;1677;49.576;10.990;2023-03-01T05:16:02;-1.00;99.90
3330;DHT22;1677;49.576;10.990;2023-03-01T05:18:29;-0.80;99.90
3330;DHT22;1677;49.576;10.990;2023-03-01T05:21:01;-0.80;99.90
3330;DHT22;1677;49.576;10.990;2023-03-01T05:23:29;-0.70;99.90
3330;DHT22;1677;49.576;10.990;2023-03-01T05:26:01;-0.60;99.90
3330;DHT22;1677;49.576;10.990;2023-03-01T05:28:27;-0.60;99.90
3330;DHT22;1677;49.576;10.990;2023-03-01T05:30:56;-0.60;99.90
3330;DHT22;1677;49.576;10.990;2023-03-01T05:33:23;-0.90;99.90
3330;DHT22;1677;49.576;10.990;2023-03-01T05:35:50;-0.80;99.90
3330;DHT22;1677;49.576;10.990;2023-03-01T05:38:17;-0.90;99.90
3330;DHT22;1677;49.576;10.990;2023-03-01T05:40:45;-0.90;99.90
3330;DHT22;1677;49.576;10.990;2023-03-01T05:43:12;-1.00;99.90
3330;DHT22;1677;49.576;10.990;2023-03-01T05:45:38;-1.00;99.90
3330;DHT22;1677;49.576;10.990;2023-03-01T05:48:05;-1.10;99.90
3330;DHT22;1677;49.576;10.990;2023-03-01T05:50:36;-1.20;99.90
3330;DHT22;1677;49.576;10.990;2023-03-01T05:53:07;-1.00;99.90
3330;DHT22;1677;49.576;10.990;2023-03-01T05:55:35;-1.20;99.90
3330;DHT22;1677;49.576;10.990;2023-03-01T05:58:03;-1.10;99.90
3330;DHT22;1677;49.576;10.990;2023-03-01T06:00:30;-1.00;99.90
3330;DHT22;1677;49.576;10.990;2023-03-01T06:02:57;-1.10;99.90
3330;DHT22;1677;49.576;10.990;2023-03-01T06:05:23;-1.20;99.90
3330;DHT22;1677;49.576;10.990;2023-03-01T06:07:49;-0.90;99.90
3330;DHT22;1677;49.576;10.990;2023-03-01T06:10:16;-0.80;99.90
3330;DHT22;1677;49.576;10.990;2023-03-01T06:12:42;-0.80;99.90
3330;DHT22;1677;49.576;10.990;2023-03-01T06:15:10;-0.80;99.90
3330;DHT22;1677;49.576;10.990;2023-03-01T06:17:38;-1.00;99.90
3330;DHT22;1677;49.576;10.990;2023-03-01T06:20:05;-0.80;99.90
3330;DHT22;1677;49.576;10.990;2023-03-01T06:22:31;-0.90;99.90
3330;DHT22;1677;49.576;10.990;2023-03-01T06:24:56;-0.70;99.90
3330;DHT22;1677;49.576;10.990;2023-03-01T06:27:22;-0.60;99.90
3330;DHT22;1677;49.576;10.990;2023-03-01T06:29:48;-0.60;99.90
3330;DHT22;1677;49.576;10.990;2023-03-01T06:32:14;-0.70;99.90
3330;DHT22;1677;49.576;10.990;2023-03-01T06:34:39;-0.80;99.90
3330;DHT22;1677;49.576;10.990;2023-03-01T06:37:06;-0.70;99.90
3330;DHT22;1677;49.576;10.990;2023-03-01T06:39:32;-0.70;99.90
3330;DHT22;1677;49.576;10.990;2023-03-01T06:41:58;-0.60;99.90
3330;DHT22;1677;49.576;10.990;2023-03-01T06:44:23;-0.80;99.90
3330;DHT22;1677;49.576;10.990;2023-03-01T06:46:49;-0.60;99.90
3330;DHT22;1677;49.576;10.990;2023-03-01T06:49:15;-0.40;99.90
3330;DHT22;1677;49.576;10.990;2023-03-01T06:51:41;-0.40;99.90
3330;DHT22;1677;49.576;10.990;2023-03-01T06:54:07;-0.30;99.90
3330;DHT22;1677;49.576;10.990;2023-03-01T06:56:33;-0.30;99.90
3330;DHT22;1677;49.576;10.990;2023-03-01T06:58:59;-0.40;99.90
3330;DHT22;1677;49.576;10.990;2023-03-01T07:01:25;-0.30;99.90
3330;DHT22;1677;49.576;10.990;2023-03-01T07:03:50;-0.10;99.90
3330;DHT22;1677;49.576;10.990;2023-03-01T07:06:16;0.00;99.90
3330;DHT22;1677;49.576;10.990;2023-03-01T07:08:43;0.10;99.90
3330;DHT22;1677;49.576;10.990;2023-03-01T07:11:08;-0.20;99.90
3330;DHT22;1677;49.576;10.990;2023-03-01T07:13:34;-0.20;99.90
3330;DHT22;1677;49.576;10.990;2023-03-01T07:15:59;0.00;99.90
3330;DHT22;1677;49.576;10.990;2023-03-01T07:18:25;0.30;99.90
3330;DHT22;1677;49.576;10.990;2023-03-01T07:20:51;0.10;99.90
3330;DHT22;1677;49.576;10.990;2023-03-01T07:23:16;0.00;99.90
3330;DHT22;1677;49.576;10.990;2023-03-01T07:25:42;0.30;99.90
3330;DHT22;1677;49.576;10.990;2023-03-01T07:28:07;1.00;99.90
3330;DHT22;1677;49.576;10.990;2023-03-01T07:30:33;1.90;99.90
3330;DHT22;1677;49.576;10.990;2023-03-01T07:32:59;2.70;99.90
3330;DHT22;1677;49.576;10.990;2023-03-01T07:35:27;3.60;99.90
3330;DHT22;1677;49.576;10.990;2023-03-01T07:37:53;4.30;99.90
3330;DHT22;1677;49.576;10.990;2023-03-01T07:40:19;4.80;98.70
3330;DHT22;1677;49.576;10.990;2023-03-01T07:42:45;5.40;97.00
3330;DHT22;1677;49.576;10.990;2023-03-01T07:45:11;6.40;95.30
3330;DHT22;1677;49.576;10.990;2023-03-01T07:47:36;6.80;93.80
3330;DHT22;1677;49.576;10.990;2023-03-01T07:50:03;7.40;92.00
3330;DHT22;1677;49.576;10.990;2023-03-01T07:52:29;8.00;90.10
3330;DHT22;1677;49.576;10.990;2023-03-01T07:54:56;8.60;85.40
3330;DHT22;1677;49.576;10.990;2023-03-01T07:57:22;8.70;81.40
3330;DHT22;1677;49.576;10.990;2023-03-01T07:59:47;8.80;78.50
3330;DHT22;1677;49.576;10.990;2023-03-01T08:02:13;8.40;77.50
3330;DHT22;1677;49.576;10.990;2023-03-01T08:04:40;9.20;74.70
3330;DHT22;1677;49.576;10.990;2023-03-01T08:07:06;9.10;72.40
3330;DHT22;1677;49.576;10.990;2023-03-01T08:09:34;9.80;72.90
3330;DHT22;1677;49.576;10.990;2023-03-01T08:12:00;10.60;68.80
3330;DHT22;1677;49.576;10.990;2023-03-01T08:14:26;11.30;60.10
3330;DHT22;1677;49.576;10.990;2023-03-01T08:16:51;11.50;57.60
3330;DHT22;1677;49.576;10.990;2023-03-01T08:19:17;12.60;54.90
3330;DHT22;1677;49.576;10.990;2023-03-01T08:21:43;13.90;50.50
3330;DHT22;1677;49.576;10.990;2023-03-01T08:24:09;14.60;48.50
3330;DHT22;1677;49.576;10.990;2023-03-01T08:26:36;14.70;44.80
3330;DHT22;1677;49.576;10.990;2023-03-01T08:29:02;15.60;44.00
3330;DHT22;1677;49.576;10.990;2023-03-01T08:31:33;16.70;40.10
3330;DHT22;1677;49.576;10.990;2023-03-01T08:34:02;16.40;38.30
3330;DHT22;1677;49.576;10.990;2023-03-01T08:36:34;15.40;38.30
3330;DHT22;1677;49.576;10.990;2023-03-01T08:39:00;16.00;36.40
3330;DHT22;1677;49.576;10.990;2023-03-01T08:41:26;16.20;36.50
3330;DHT22;1677;49.576;10.990;2023-03-01T08:43:52;13.70;35.40
3330;DHT22;1677;49.576;10.990;2023-03-01T08:46:18;14.30;38.30
3330;DHT22;1677;49.576;10.990;2023-03-01T08:48:44;15.20;35.70
3330;DHT22;1677;49.576;10.990;2023-03-01T08:51:11;15.90;34.30
3330;DHT22;1677;49.576;10.990;2023-03-01T08:53:38;15.40;34.50
3330;DHT22;1677;49.576;10.990;2023-03-01T08:56:04;14.30;33.70
3330;DHT22;1677;49.576;10.990;2023-03-01T08:58:30;14.40;35.00
3330;DHT22;1677;49.576;10.990;2023-03-01T09:00:56;15.30;35.50
3330;DHT22;1677;49.576;10.990;2023-03-01T09:03:25;15.50;34.80
3330;DHT22;1677;49.576;10.990;2023-03-01T09:05:51;15.70;33.20
3330;DHT22;1677;49.576;10.990;2023-03-01T09:08:18;16.30;33.00
3330;DHT22;1677;49.576;10.990;2023-03-01T09:10:44;16.60;32.70
3330;DHT22;1677;49.576;10.990;2023-03-01T09:13:10;16.10;30.80
3330;DHT22;1677;49.576;10.990;2023-03-01T09:15:38;16.20;31.30
3330;DHT22;1677;49.576;10.990;2023-03-01T09:18:04;16.30;31.70
3330;DHT22;1677;49.576;10.990;2023-03-01T09:20:32;17.10;31.90
3330;DHT22;1677;49.576;10.990;2023-03-01T09:22:58;17.00;30.40
3330;DHT22;1677;49.576;10.990;2023-03-01T09:25:24;17.60;30.00
3330;DHT22;1677;49.576;10.990;2023-03-01T09:27:54;16.90;29.20
3330;DHT22;1677;49.576;10.990;2023-03-01T09:30:20;17.30;29.00
3330;DHT22;1677;49.576;10.990;2023-03-01T09:32:46;17.60;30.70
3330;DHT22;1677;49.576;10.990;2023-03-01T09:35:12;18.10;28.90
3330;DHT22;1677;49.576;10.990;2023-03-01T09:37:38;17.60;29.40
3330;DHT22;1677;49.576;10.990;2023-03-01T09:40:14;17.50;28.90
3330;DHT22;1677;49.576;10.990;2023-03-01T09:47:52;19.40;27.10
3330;DHT22;1677;49.576;10.990;2023-03-01T09:50:20;19.70;26.10
3330;DHT22;1677;49.576;10.990;2023-03-01T09:52:47;19.60;27.40
3330;DHT22;1677;49.576;10.990;2023-03-01T09:55:17;19.10;26.00
3330;DHT22;1677;49.576;10.990;2023-03-01T10:00:50;18.20;27.30
3330;DHT22;1677;49.576;10.990;2023-03-01T10:03:34;19.60;27.40
3330;DHT22;1677;49.576;10.990;2023-03-01T10:06:31;19.90;26.80
3330;DHT22;1677;49.576;10.990;2023-03-01T10:09:00;18.10;26.30
3330;DHT22;1677;49.576;10.990;2023-03-01T10:11:30;18.00;27.60
3330;DHT22;1677;49.576;10.990;2023-03-01T10:16:57;19.90;26.10
3330;DHT22;1677;49.576;10.990;2023-03-01T10:19:25;20.10;25.60
3330;DHT22;1677;49.576;10.990;2023-03-01T10:21:53;20.40;25.10
3330;DHT22;1677;49.576;10.990;2023-03-01T10:24:19;20.20;25.20
3330;DHT22;1677;49.576;10.990;2023-03-01T10:26:57;20.90;25.50
3330;DHT22;1677;49.576;10.990;2023-03-01T10:29:30;21.20;23.40
3330;DHT22;1677;49.576;10.990;2023-03-01T10:31:57;21.10;24.40
3330;DHT22;1677;49.576;10.990;2023-03-01T10:34:31;20.90;23.70
3330;DHT22;1677;49.576;10.990;2023-03-01T10:37:07;20.10;24.70
3330;DHT22;1677;49.576;10.990;2023-03-01T10:39:34;19.20;24.70
3330;DHT22;1677;49.576;10.990;2023-03-01T10:42:05;19.10;24.20
3330;DHT22;1677;49.576;10.990;2023-03-01T10:44:46;19.20;24.70
3330;DHT22;1677;49.576;10.990;2023-03-01T10:47:15;18.20;24.70
3330;DHT22;1677;49.576;10.990;2023-03-01T10:49:59;17.80;25.80
3330;DHT22;1677;49.576;10.990;2023-03-01T10:52:34;17.80;25.80
3330;DHT22;1677;49.576;10.990;2023-03-01T10:55:23;17.90;26.00
3330;DHT22;1677;49.576;10.990;2023-03-01T10:57:50;17.80;26.10
3330;DHT22;1677;49.576;10.990;2023-03-01T11:00:31;18.30;25.60
3330;DHT22;1677;49.576;10.990;2023-03-01T11:03:04;18.40;25.00
3330;DHT22;1677;49.576;10.990;2023-03-01T11:05:35;17.50;24.70
3330;DHT22;1677;49.576;10.990;2023-03-01T11:08:02;17.40;25.50
3330;DHT22;1677;49.576;10.990;2023-03-01T11:10:36;18.40;25.70
3330;DHT22;1677;49.576;10.990;2023-03-01T11:13:16;18.40;25.00
3330;DHT22;1677;49.576;10.990;2023-03-01T11:15:43;18.00;25.20
3330;DHT22;1677;49.576;10.990;2023-03-01T11:18:22;18.20;25.50
3330;DHT22;1677;49.576;10.990;2023-03-01T11:20:48;19.40;26.10
3330;DHT22;1677;49.576;10.990;2023-03-01T11:23:17;21.00;26.50
3330;DHT22;1677;49.576;10.990;2023-03-01T11:25:54;21.30;24.30
3330;DHT22;1677;49.576;10.990;2023-03-01T11:28:21;21.00;24.50
3330;DHT22;1677;49.576;10.990;2023-03-01T11:30:56;19.90;25.60
3330;DHT22;1677;49.576;10.990;2023-03-01T11:33:48;19.40;26.00
3330;DHT22;1677;49.576;10.990;2023-03-01T11:38:57;18.90;25.00
3330;DHT22;1677;49.576;10.990;2023-03-01T11:41:30;18.20;25.20
3330;DHT22;1677;49.576;10.990;2023-03-01T11:55:34;18.50;27.50
3330;DHT22;1677;49.576;10.990;2023-03-01T11:58:27;17.10;26.90
3330;DHT22;1677;49.576;10.990;2023-03-01T12:01:28;17.10;28.30
3330;DHT22;1677;49.576;10.990;2023-03-01T12:06:57;17.20;28.10
3330;DHT22;1677;49.576;10.990;2023-03-01T12:26:30;16.50;31.40
3330;DHT22;1677;49.576;10.990;2023-03-01T12:29:26;15.70;30.30
3330;DHT22;1677;49.576;10.990;2023-03-01T12:32:20;15.60;32.10
3330;DHT22;1677;49.576;10.990;2023-03-01T12:40:40;13.90;30.90
3330;DHT22;1677;49.576;10.990;2023-03-01T12:43:22;13.60;33.30
3330;DHT22;1677;49.576;10.990;2023-03-01T12:49:15;13.90;33.30
3330;DHT22;1677;49.576;10.990;2023-03-01T12:51:54;12.90;35.00
3330;DHT22;1677;49.576;10.990;2023-03-01T12:54:26;12.90;36.20
3330;DHT22;1677;49.576;10.990;2023-03-01T12:56:54;13.20;35.10
3330;DHT22;1677;49.576;10.990;2023-03-01T13:02:45;12.50;35.90
3330;DHT22;1677;49.576;10.990;2023-03-01T13:11:04;12.40;38.90
3330;DHT22;1677;49.576;10.990;2023-03-01T13:13:31;12.80;37.10
3330;DHT22;1677;49.576;10.990;2023-03-01T13:15:57;12.60;40.20
3330;DHT22;1677;49.576;10.990;2023-03-01T13:20:54;12.50;37.20
3330;DHT22;1677;49.576;10.990;2023-03-01T13:34:41;12.00;39.10
3330;DHT22;1677;49.576;10.990;2023-03-01T13:37:09;11.80;39.50
3330;DHT22;1677;49.576;10.990;2023-03-01T13:39:40;11.90;40.80
3330;DHT22;1677;49.576;10.990;2023-03-01T13:42:32;12.10;41.10
3330;DHT22;1677;49.576;10.990;2023-03-01T13:44:59;12.10;40.60
3330;DHT22;1677;49.576;10.990;2023-03-01T13:47:26;12.20;40.70
3330;DHT22;1677;49.576;10.990;2023-03-01T13:50:03;12.40;40.80
3330;DHT22;1677;49.576;10.990;2023-03-01T13:55:03;11.80;41.90
3330;DHT22;1677;49.576;10.990;2023-03-01T13:57:34;11.80;42.60
3330;DHT22;1677;49.576;10.990;2023-03-01T14:00:00;11.40;42.80
3330;DHT22;1677;49.576;10.990;2023-03-01T14:02:25;11.50;44.00
3330;DHT22;1677;49.576;10.990;2023-03-01T14:05:01;11.90;44.40
3330;DHT22;1677;49.576;10.990;2023-03-01T14:07:27;12.00;44.30
3330;DHT22;1677;49.576;10.990;2023-03-01T14:10:03;12.00;44.00
3330;DHT22;1677;49.576;10.990;2023-03-01T14:12:52;11.90;44.60
3330;DHT22;1677;49.576;10.990;2023-03-01T14:15:26;11.30;43.80
3330;DHT22;1677;49.576;10.990;2023-03-01T14:20:37;11.20;46.50
3330;DHT22;1677;49.576;10.990;2023-03-01T14:23:12;11.20;45.50
3330;DHT22;1677;49.576;10.990;2023-03-01T14:25:50;11.10;45.60
3330;DHT22;1677;49.576;10.990;2023-03-01T14:28:26;11.00;46.60
3330;DHT22;1677;49.576;10.990;2023-03-01T14:30:54;10.80;46.80
3330;DHT22;1677;49.576;10.990;2023-03-01T14:33:32;10.70;47.50
3330;DHT22;1677;49.576;10.990;2023-03-01T14:36:11;10.60;47.40
3330;DHT22;1677;49.576;10.990;2023-03-01T14:38:39;10.60;48.40
3330;DHT22;1677;49.576;10.990;2023-03-01T14:43:53;10.50;48.60
3330;DHT22;1677;49.576;10.990;2023-03-01T14:48:56;10.40;49.70
3330;DHT22;1677;49.576;10.990;2023-03-01T14:51:23;10.40;49.90
3330;DHT22;1677;49.576;10.990;2023-03-01T14:53:50;10.30;50.00
3330;DHT22;1677;49.576;10.990;2023-03-01T14:56:16;10.30;49.70
3330;DHT22;1677;49.576;10.990;2023-03-01T14:58:46;10.20;50.40
3330;DHT22;1677;49.576;10.990;2023-03-01T15:01:17;9.90;51.70
3330;DHT22;1677;49.576;10.990;2023-03-01T15:03:46;9.80;52.80
3330;DHT22;1677;49.576;10.990;2023-03-01T15:06:17;10.00;51.80
3330;DHT22;1677;49.576;10.990;2023-03-01T15:08:49;9.80;52.70
3330;DHT22;1677;49.576;10.990;2023-03-01T15:11:45;9.70;53.40
3330;DHT22;1677;49.576;10.990;2023-03-01T15:14:42;9.80;53.30
3330;DHT22;1677;49.576;10.990;2023-03-01T15:17:34;9.70;53.20
3330;DHT22;1677;49.576;10.990;2023-03-01T15:20:03;9.70;54.50
3330;DHT22;1677;49.576;10.990;2023-03-01T15:22:29;9.80;54.30
3330;DHT22;1677;49.576;10.990;2023-03-01T15:24:55;9.70;54.30
3330;DHT22;1677;49.576;10.990;2023-03-01T15:27:23;9.80;55.10
3330;DHT22;1677;49.576;10.990;2023-03-01T15:29:53;9.80;54.40
3330;DHT22;1677;49.576;10.990;2023-03-01T15:32:29;9.60;55.40
3330;DHT22;1677;49.576;10.990;2023-03-01T15:34:57;9.60;56.60
3330;DHT22;1677;49.576;10.990;2023-03-01T15:37:47;9.40;56.00
3330;DHT22;1677;49.576;10.990;2023-03-01T15:40:30;9.10;56.90
3330;DHT22;1677;49.576;10.990;2023-03-01T15:43:00;9.00;57.60
3330;DHT22;1677;49.576;10.990;2023-03-01T15:45:27;8.90;58.20
3330;DHT22;1677;49.576;10.990;2023-03-01T15:47:58;8.80;58.90
3330;DHT22;1677;49.576;10.990;2023-03-01T15:50:33;8.80;59.00
3330;DHT22;1677;49.576;10.990;2023-03-01T15:53:01;8.80;59.80
3330;DHT22;1677;49.576;10.990;2023-03-01T15:55:31;8.90;58.90
3330;DHT22;1677;49.576;10.990;2023-03-01T15:58:10;8.80;59.60
3330;DHT22;1677;49.576;10.990;2023-03-01T16:00:37;8.80;60.00
3330;DHT22;1677;49.576;10.990;2023-03-01T16:03:04;8.60;60.40
3330;DHT22;1677;49.576;10.990;2023-03-01T16:05:34;8.60;60.30
3330;DHT22;1677;49.576;10.990;2023-03-01T16:08:00;8.50;61.10
3330;DHT22;1677;49.576;10.990;2023-03-01T16:10:27;8.30;62.30
3330;DHT22;1677;49.576;10.990;2023-03-01T16:12:53;8.40;62.60
3330;DHT22;1677;49.576;10.990;2023-03-01T16:15:24;8.20;63.90
3330;DHT22;1677;49.576;10.990;2023-03-01T16:17:50;8.20;64.70
3330;DHT22;1677;49.576;10.990;2023-03-01T16:20:16;8.10;63.60
3330;DHT22;1677;49.576;10.990;2023-03-01T16:22:43;8.10;63.30
3330;DHT22;1677;49.576;10.990;2023-03-01T16:25:10;8.00;64.30
3330;DHT22;1677;49.576;10.990;2023-03-01T16:27:36;8.30;63.30
3330;DHT22;1677;49.576;10.990;2023-03-01T16:30:01;8.30;62.80
3330;DHT22;1677;49.576;10.990;2023-03-01T16:32:27;8.10;63.20
3330;DHT22;1677;49.576;10.990;2023-03-01T16:34:53;7.80;65.20
3330;DHT22;1677;49.576;10.990;2023-03-01T16:37:18;7.80;65.60
3330;DHT22;1677;49.576;10.990;2023-03-01T16:39:44;7.60;65.80
3330;DHT22;1677;49.576;10.990;2023-03-01T16:42:10;7.30;67.60
3330;DHT22;1677;49.576;10.990;2023-03-01T16:44:35;7.20;69.80
3330;DHT22;1677;49.576;10.990;2023-03-01T16:47:01;7.30;69.00
3330;DHT22;1677;49.576;10.990;2023-03-01T16:49:26;7.30;69.20
3330;DHT22;1677;49.576;10.990;2023-03-01T16:51:53;7.30;69.80
3330;DHT22;1677;49.576;10.990;2023-03-01T16:54:19;7.40;70.00
3330;DHT22;1677;49.576;10.990;2023-03-01T16:56:44;7.40;70.80
3330;DHT22;1677;49.576;10.990;2023-03-01T16:59:10;7.20;71.10
3330;DHT22;1677;49.576;10.990;2023-03-01T17:01:35;7.10;70.90
3330;DHT22;1677;49.576;10.990;2023-03-01T17:04:06;7.10;72.10
3330;DHT22;1677;49.576;10.990;2023-03-01T17:06:35;7.10;72.30
3330;DHT22;1677;49.576;10.990;2023-03-01T17:09:00;7.10;73.30
3330;DHT22;1677;49.576;10.990;2023-03-01T17:11:26;6.90;74.00
3330;DHT22;1677;49.576;10.990;2023-03-01T17:13:52;7.10;74.50
3330;DHT22;1677;49.576;10.990;2023-03-01T17:16:19;7.10;74.80
3330;DHT22;1677;49.576;10.990;2023-03-01T17:18:45;6.80;75.30
3330;DHT22;1677;49.576;10.990;2023-03-01T17:21:11;6.70;76.10
3330;DHT22;1677;49.576;10.990;2023-03-01T17:23:39;6.60;77.90
3330;DHT22;1677;49.576;10.990;2023-03-01T17:26:05;6.60;77.20
3330;DHT22;1677;49.576;10.990;2023-03-01T17:28:32;6.70;77.90
3330;DHT22;1677;49.576;10.990;2023-03-01T17:31:03;6.60;78.00
3330;DHT22;1677;49.576;10.990;2023-03-01T17:33:30;6.60;77.70
3330;DHT22;1677;49.576;10.990;2023-03-01T17:35:56;6.50;79.10
3330;DHT22;1677;49.576;10.990;2023-03-01T17:38:22;6.40;79.20